sensor_id;sensor_type;location;lat;lon;timestamp;pressure;altitude;pressure_sealevel;temperature;humidity
15678;BME280;7939;50.814;6.368;2022-11-20T00:00:12;99508.38;;;10.85;59.03
15678;BME280;7939;50.814;6.368;2022-11-20T00:02:39;99513.56;;;10.77;59.10
15678;BME280;7939;50.814;6.368;2022-11-20T00:05:06;99519.50;;;10.74;59.18
15678;BME280;7939;50.814;6.368;2022-11-20T00:07:33;99517.78;;;10.81;59.23
15678;BME280;7939;50.814;6.368;2022-11-20T00:10:00;99521.19;;;10.83;59.24
15678;BME280;7939;50.814;6.368;2022-11-20T00:12:26;99515.22;;;10.84;59.23
15678;BME280;7939;50.814;6.368;2022-11-20T00:14:53;99513.47;;;10.94;59.27
15678;BME280;7939;50.814;6.368;2022-11-20T00:17:21;99516.00;;;10.95;59.52
15678;BME280;7939;50.814;6.368;2022-11-20T00:19:48;99512.56;;;10.98;59.03
15678;BME280;7939;50.814;6.368;2022-11-20T00:22:14;99501.50;;;11.00;58.94
15678;BME280;7939;50.814;6.368;2022-11-20T00:24:41;99496.41;;;10.94;58.84
15678;BME280;7939;50.814;6.368;2022-11-20T00:27:07;99493.03;;;10.86;58.74
15678;BME280;7939;50.814;6.368;2022-11-20T00:29:34;99500.72;;;10.88;59.26
15678;BME280;7939;50.814;6.368;2022-11-20T00:32:00;99493.00;;;10.92;59.29
15678;BME280;7939;50.814;6.368;2022-11-20T00:34:28;99496.38;;;10.99;59.40
15678;BME280;7939;50.814;6.368;2022-11-20T00:36:55;99493.81;;;10.99;59.19
15678;BME280;7939;50.814;6.368;2022-11-20T00:39:21;99494.66;;;11.01;59.00
15678;BME280;7939;50.814;6.368;2022-11-20T00:41:48;99492.94;;;11.04;59.26
15678;BME280;7939;50.814;6.368;2022-11-20T00:44:14;99486.97;;;11.04;59.43
15678;BME280;7939;50.814;6.368;2022-11-20T00:46:41;99485.25;;;11.06;58.96
15678;BME280;7939;50.814;6.368;2022-11-20T00:49:07;99487.78;;;11.06;58.99
15678;BME280;7939;50.814;6.368;2022-11-20T00:51:35;99482.69;;;11.04;59.46
15678;BME280;7939;50.814;6.368;2022-11-20T00:54:02;99485.25;;;11.04;60.00
15678;BME280;7939;50.814;6.368;2022-11-20T00:56:28;99486.13;;;11.03;59.48
15678;BME280;7939;50.814;6.368;2022-11-20T00:58:55;99483.53;;;11.05;59.18
15678;BME280;7939;50.814;6.368;2022-11-20T01:01:23;99482.69;;;11.07;59.49
15678;BME280;7939;50.814;6.368;2022-11-20T01:03:51;99483.53;;;11.08;58.89
15678;BME280;7939;50.814;6.368;2022-11-20T01:06:20;99473.28;;;11.10;58.84
15678;BME280;7939;50.814;6.368;2022-11-20T01:08:50;99480.97;;;11.08;58.84
15678;BME280;7939;50.814;6.368;2022-11-20T01:11:18;99490.31;;;11.11;58.99
15678;BME280;7939;50.814;6.368;2022-11-20T01:13:46;99488.63;;;11.10;59.21
15678;BME280;7939;50.814;6.368;2022-11-20T01:16:15;99486.94;;;11.10;59.52
15678;BME280;7939;50.814;6.368;2022-11-20T01:18:44;99484.38;;;11.08;58.98
15678;BME280;7939;50.814;6.368;2022-11-20T01:21:13;99478.41;;;11.10;59.33
15678;BME280;7939;50.814;6.368;2022-11-20T01:23:40;99482.66;;;11.14;59.13
15678;BME280;7939;50.814;6.368;2022-11-20T01:26:10;99477.53;;;11.14;59.43
15678;BME280;7939;50.814;6.368;2022-11-20T01:28:38;99481.81;;;11.10;58.79
15678;BME280;7939;50.814;6.368;2022-11-20T01:31:10;99482.63;;;11.12;59.44
15678;BME280;7939;50.814;6.368;2022-11-20T01:33:37;99470.72;;;11.14;58.51
15678;BME280;7939;50.814;6.368;2022-11-20T01:36:04;99472.41;;;11.12;59.17
15678;BME280;7939;50.814;6.368;2022-11-20T01:38:31;99470.72;;;11.13;59.10
15678;BME280;7939;50.814;6.368;2022-11-20T01:40:58;99471.56;;;11.12;58.82
15678;BME280;7939;50.814;6.368;2022-11-20T01:43:26;99472.41;;;11.14;58.92
15678;BME280;7939;50.814;6.368;2022-11-20T01:45:58;99464.75;;;11.12;58.88
15678;BME280;7939;50.814;6.368;2022-11-20T01:48:28;99457.06;;;11.12;58.71
15678;BME280;7939;50.814;6.368;2022-11-20T01:50:57;99463.03;;;11.11;58.73
15678;BME280;7939;50.814;6.368;2022-11-20T01:53:26;99451.97;;;11.11;58.77
15678;BME280;7939;50.814;6.368;2022-11-20T01:55:57;99458.78;;;11.12;58.71
15678;BME280;7939;50.814;6.368;2022-11-20T01:58:30;99455.38;;;11.11;59.00
15678;BME280;7939;50.814;6.368;2022-11-20T02:00:57;99445.16;;;11.10;58.74
15678;BME280;7939;50.814;6.368;2022-11-20T02:03:24;99452.00;;;11.07;58.71
15678;BME280;7939;50.814;6.368;2022-11-20T02:05:56;99450.31;;;11.08;59.28
15678;BME280;7939;50.814;6.368;2022-11-20T02:08:25;99450.31;;;11.08;59.08
15678;BME280;7939;50.814;6.368;2022-11-20T02:10:52;99452.84;;;11.08;59.30
15678;BME280;7939;50.814;6.368;2022-11-20T02:13:18;99463.94;;;11.08;59.26
15678;BME280;7939;50.814;6.368;2022-11-20T02:16:05;99464.78;;;11.09;59.28
15678;BME280;7939;50.814;6.368;2022-11-20T02:18:34;99463.09;;;11.06;59.38
15678;BME280;7939;50.814;6.368;2022-11-20T02:21:07;99463.94;;;11.05;59.29
15678;BME280;7939;50.814;6.368;2022-11-20T02:23:38;99468.22;;;11.06;59.33
15678;BME280;7939;50.814;6.368;2022-11-20T02:26:09;99454.56;;;11.06;58.86
15678;BME280;7939;50.814;6.368;2022-11-20T02:28:37;99455.44;;;11.06;58.67
15678;BME280;7939;50.814;6.368;2022-11-20T02:31:04;99450.31;;;11.06;59.27
15678;BME280;7939;50.814;6.368;2022-11-20T02:33:31;99453.72;;;11.07;59.04
15678;BME280;7939;50.814;6.368;2022-11-20T02:35:57;99448.59;;;11.07;58.68
15678;BME280;7939;50.814;6.368;2022-11-20T02:38:23;99448.59;;;11.05;59.08
15678;BME280;7939;50.814;6.368;2022-11-20T02:40:50;99448.59;;;11.07;59.17
15678;BME280;7939;50.814;6.368;2022-11-20T02:43:18;99452.00;;;11.07;58.83
15678;BME280;7939;50.814;6.368;2022-11-20T02:45:44;99456.25;;;11.08;58.74
15678;BME280;7939;50.814;6.368;2022-11-20T02:48:11;99449.44;;;11.09;59.01
15678;BME280;7939;50.814;6.368;2022-11-20T02:50:38;99450.28;;;11.10;59.16
15678;BME280;7939;50.814;6.368;2022-11-20T02:53:06;99446.06;;;11.07;59.24
15678;BME280;7939;50.814;6.368;2022-11-20T02:55:32;99447.75;;;11.08;59.16
15678;BME280;7939;50.814;6.368;2022-11-20T02:57:59;99449.44;;;11.07;59.14
15678;BME280;7939;50.814;6.368;2022-11-20T03:00:27;99444.31;;;11.09;58.88
15678;BME280;7939;50.814;6.368;2022-11-20T03:02:53;99442.63;;;11.08;58.90
15678;BME280;7939;50.814;6.368;2022-11-20T03:05:20;99433.28;;;11.04;58.75
15678;BME280;7939;50.814;6.368;2022-11-20T03:07:47;99433.25;;;11.05;59.11
15678;BME280;7939;50.814;6.368;2022-11-20T03:10:13;99429.84;;;11.06;58.59
15678;BME280;7939;50.814;6.368;2022-11-20T03:12:40;99431.56;;;11.07;58.95
15678;BME280;7939;50.814;6.368;2022-11-20T03:15:08;99426.44;;;11.07;58.62
15678;BME280;7939;50.814;6.368;2022-11-20T03:17:36;99432.38;;;11.10;58.84
15678;BME280;7939;50.814;6.368;2022-11-20T03:20:03;99428.97;;;11.06;58.67
15678;BME280;7939;50.814;6.368;2022-11-20T03:22:30;99417.91;;;11.08;58.75
15678;BME280;7939;50.814;6.368;2022-11-20T03:24:56;99414.53;;;11.06;59.23
15678;BME280;7939;50.814;6.368;2022-11-20T03:27:23;99402.56;;;11.07;59.22
15678;BME280;7939;50.814;6.368;2022-11-20T03:29:49;99411.97;;;11.06;59.19
15678;BME280;7939;50.814;6.368;2022-11-20T03:32:16;99408.53;;;11.07;58.46
15678;BME280;7939;50.814;6.368;2022-11-20T03:34:44;99417.91;;;11.08;59.23
15678;BME280;7939;50.814;6.368;2022-11-20T03:37:10;99411.97;;;11.03;58.67
15678;BME280;7939;50.814;6.368;2022-11-20T03:39:37;99413.69;;;11.01;58.86
15678;BME280;7939;50.814;6.368;2022-11-20T03:42:03;99411.09;;;11.06;59.13
15678;BME280;7939;50.814;6.368;2022-11-20T03:44:50;99414.50;;;11.08;59.14
15678;BME280;7939;50.814;6.368;2022-11-20T03:47:17;99419.63;;;11.08;59.11
15678;BME280;7939;50.814;6.368;2022-11-20T03:49:45;99417.03;;;11.10;59.23
15678;BME280;7939;50.814;6.368;2022-11-20T03:52:11;99419.59;;;11.10;58.50
15678;BME280;7939;50.814;6.368;2022-11-20T03:54:38;99422.16;;;11.10;58.73
15678;BME280;7939;50.814;6.368;2022-11-20T03:57:04;99428.13;;;11.08;58.51
15678;BME280;7939;50.814;6.368;2022-11-20T03:59:31;99423.81;;;11.12;58.40
15678;BME280;7939;50.814;6.368;2022-11-20T04:01:57;99422.16;;;11.13;58.53
15678;BME280;7939;50.814;6.368;2022-11-20T04:04:24;99420.41;;;11.12;58.91
15678;BME280;7939;50.814;6.368;2022-11-20T04:06:52;99417.00;;;11.14;58.25
15678;BME280;7939;50.814;6.368;2022-11-20T04:09:18;99417.03;;;11.13;59.01
15678;BME280;7939;50.814;6.368;2022-11-20T04:11:45;99408.53;;;11.09;59.02
15678;BME280;7939;50.814;6.368;2022-11-20T04:14:13;99413.59;;;11.12;58.59
15678;BME280;7939;50.814;6.368;2022-11-20T04:16:40;99406.81;;;11.13;58.35
15678;BME280;7939;50.814;6.368;2022-11-20T04:19:10;99400.81;;;11.14;58.36
15678;BME280;7939;50.814;6.368;2022-11-20T04:21:37;99397.41;;;11.13;58.39
15678;BME280;7939;50.814;6.368;2022-11-20T04:24:06;99405.09;;;11.13;58.58
15678;BME280;7939;50.814;6.368;2022-11-20T04:26:33;99409.34;;;11.13;58.42
15678;BME280;7939;50.814;6.368;2022-11-20T04:28:59;99417.00;;;11.14;58.50
15678;BME280;7939;50.814;6.368;2022-11-20T04:31:28;99411.91;;;11.14;59.04
15678;BME280;7939;50.814;6.368;2022-11-20T04:33:55;99415.28;;;11.15;58.44
15678;BME280;7939;50.814;6.368;2022-11-20T04:36:23;99417.84;;;11.15;58.72
15678;BME280;7939;50.814;6.368;2022-11-20T04:38:51;99416.13;;;11.15;58.71
15678;BME280;7939;50.814;6.368;2022-11-20T04:41:22;99414.44;;;11.16;58.06
15678;BME280;7939;50.814;6.368;2022-11-20T04:43:50;99413.59;;;11.15;58.88
15678;BME280;7939;50.814;6.368;2022-11-20T04:46:17;99415.28;;;11.15;58.92
15678;BME280;7939;50.814;6.368;2022-11-20T04:48:44;99412.72;;;11.16;58.79
15678;BME280;7939;50.814;6.368;2022-11-20T04:51:11;99412.72;;;11.16;59.00
15678;BME280;7939;50.814;6.368;2022-11-20T04:53:39;99405.03;;;11.16;58.96
15678;BME280;7939;50.814;6.368;2022-11-20T04:56:07;99406.75;;;11.16;59.04
15678;BME280;7939;50.814;6.368;2022-11-20T04:58:36;99400.78;;;11.15;58.94
15678;BME280;7939;50.814;6.368;2022-11-20T05:01:04;99410.16;;;11.16;58.10
15678;BME280;7939;50.814;6.368;2022-11-20T05:03:31;99409.28;;;11.17;58.38
15678;BME280;7939;50.814;6.368;2022-11-20T05:06:00;99407.63;;;11.15;58.94
15678;BME280;7939;50.814;6.368;2022-11-20T05:08:27;99409.31;;;11.16;59.36
15678;BME280;7939;50.814;6.368;2022-11-20T05:10:53;99412.72;;;11.16;58.66
15678;BME280;7939;50.814;6.368;2022-11-20T05:13:20;99411.00;;;11.17;58.58
15678;BME280;7939;50.814;6.368;2022-11-20T05:15:48;99418.69;;;11.17;58.40
15678;BME280;7939;50.814;6.368;2022-11-20T05:18:14;99416.97;;;11.17;59.28
15678;BME280;7939;50.814;6.368;2022-11-20T05:20:41;99416.97;;;11.17;58.76
15678;BME280;7939;50.814;6.368;2022-11-20T05:23:07;99407.59;;;11.16;58.84
15678;BME280;7939;50.814;6.368;2022-11-20T05:25:34;99413.56;;;11.17;58.43
15678;BME280;7939;50.814;6.368;2022-11-20T05:28:00;99410.16;;;11.16;58.42
15678;BME280;7939;50.814;6.368;2022-11-20T05:30:27;99411.03;;;11.15;59.18
15678;BME280;7939;50.814;6.368;2022-11-20T05:32:55;99409.31;;;11.16;59.01
15678;BME280;7939;50.814;6.368;2022-11-20T05:35:21;99409.31;;;11.16;59.17
15678;BME280;7939;50.814;6.368;2022-11-20T05:37:48;99415.28;;;11.16;59.01
15678;BME280;7939;50.814;6.368;2022-11-20T05:40:14;99408.44;;;11.17;58.63
15678;BME280;7939;50.814;6.368;2022-11-20T05:42:41;99398.22;;;11.17;58.35
15678;BME280;7939;50.814;6.368;2022-11-20T05:45:09;99400.78;;;11.17;58.51
15678;BME280;7939;50.814;6.368;2022-11-20T05:47:35;99405.03;;;11.16;59.26
15678;BME280;7939;50.814;6.368;2022-11-20T05:50:04;99402.47;;;11.18;58.86
15678;BME280;7939;50.814;6.368;2022-11-20T05:52:31;99406.75;;;11.17;59.19
15678;BME280;7939;50.814;6.368;2022-11-20T05:54:57;99403.31;;;11.18;58.72
15678;BME280;7939;50.814;6.368;2022-11-20T05:57:24;99397.34;;;11.18;58.66
15678;BME280;7939;50.814;6.368;2022-11-20T05:59:50;99400.75;;;11.18;58.65
15678;BME280;7939;50.814;6.368;2022-11-20T06:02:17;99403.31;;;11.20;58.58
15678;BME280;7939;50.814;6.368;2022-11-20T06:04:43;99399.03;;;11.19;58.76
15678;BME280;7939;50.814;6.368;2022-11-20T06:07:11;99405.03;;;11.18;58.73
15678;BME280;7939;50.814;6.368;2022-11-20T06:09:38;99401.59;;;11.19;59.23
15678;BME280;7939;50.814;6.368;2022-11-20T06:12:05;99397.34;;;11.18;59.35
15678;BME280;7939;50.814;6.368;2022-11-20T06:14:32;99398.19;;;11.18;58.64
15678;BME280;7939;50.814;6.368;2022-11-20T06:16:58;99406.75;;;11.17;59.19
15678;BME280;7939;50.814;6.368;2022-11-20T06:19:25;99407.59;;;11.19;58.62
15678;BME280;7939;50.814;6.368;2022-11-20T06:21:51;99413.59;;;11.15;58.79
15678;BME280;7939;50.814;6.368;2022-11-20T06:24:19;99415.31;;;11.13;58.72
15678;BME280;7939;50.814;6.368;2022-11-20T06:26:46;99417.00;;;11.14;59.05
15678;BME280;7939;50.814;6.368;2022-11-20T06:29:12;99420.41;;;11.15;59.06
15678;BME280;7939;50.814;6.368;2022-11-20T06:31:39;99426.34;;;11.17;59.15
15678;BME280;7939;50.814;6.368;2022-11-20T06:34:07;99430.63;;;11.16;59.19
15678;BME280;7939;50.814;6.368;2022-11-20T06:36:34;99425.50;;;11.16;59.03
15678;BME280;7939;50.814;6.368;2022-11-20T06:39:01;99430.63;;;11.16;59.15
15678;BME280;7939;50.814;6.368;2022-11-20T06:41:28;99428.19;;;11.01;59.05
15678;BME280;7939;50.814;6.368;2022-11-20T06:43:55;99428.16;;;11.07;59.21
15678;BME280;7939;50.814;6.368;2022-11-20T06:46:22;99441.78;;;11.06;59.65
15678;BME280;7939;50.814;6.368;2022-11-20T06:48:49;99441.78;;;11.07;58.99
15678;BME280;7939;50.814;6.368;2022-11-20T06:51:16;99442.63;;;11.08;59.59
15678;BME280;7939;50.814;6.368;2022-11-20T06:53:42;99447.69;;;11.11;59.74
15678;BME280;7939;50.814;6.368;2022-11-20T06:56:09;99445.16;;;11.13;59.45
15678;BME280;7939;50.814;6.368;2022-11-20T06:58:37;99442.59;;;11.11;59.45
15678;BME280;7939;50.814;6.368;2022-11-20T07:01:05;99436.66;;;11.09;59.57
15678;BME280;7939;50.814;6.368;2022-11-20T07:03:32;99444.34;;;11.07;59.51
15678;BME280;7939;50.814;6.368;2022-11-20T07:05:59;99442.66;;;11.03;59.09
15678;BME280;7939;50.814;6.368;2022-11-20T07:08:27;99446.06;;;11.07;59.55
15678;BME280;7939;50.814;6.368;2022-11-20T07:10:57;99441.75;;;11.09;59.28
15678;BME280;7939;50.814;6.368;2022-11-20T07:13:23;99449.44;;;11.06;59.49
15678;BME280;7939;50.814;6.368;2022-11-20T07:15:51;99445.19;;;11.06;59.27
15678;BME280;7939;50.814;6.368;2022-11-20T07:18:18;99445.19;;;11.05;59.51
15678;BME280;7939;50.814;6.368;2022-11-20T07:20:45;99443.53;;;11.02;58.99
15678;BME280;7939;50.814;6.368;2022-11-20T07:23:11;99444.38;;;11.01;59.64
15678;BME280;7939;50.814;6.368;2022-11-20T07:25:38;99447.75;;;11.06;59.68
15678;BME280;7939;50.814;6.368;2022-11-20T07:28:04;99434.13;;;11.04;59.25
15678;BME280;7939;50.814;6.368;2022-11-20T07:30:31;99440.09;;;11.06;59.23
15678;BME280;7939;50.814;6.368;2022-11-20T07:32:59;99435.81;;;11.08;59.18
15678;BME280;7939;50.814;6.368;2022-11-20T07:35:25;99435.78;;;11.10;59.26
15678;BME280;7939;50.814;6.368;2022-11-20T07:37:52;99432.38;;;11.10;59.27
15678;BME280;7939;50.814;6.368;2022-11-20T07:40:19;99429.81;;;11.11;59.11
15678;BME280;7939;50.814;6.368;2022-11-20T07:42:49;99432.38;;;11.10;59.69
15678;BME280;7939;50.814;6.368;2022-11-20T07:45:15;99427.25;;;11.11;59.73
15678;BME280;7939;50.814;6.368;2022-11-20T07:47:42;99433.22;;;11.12;59.17
15678;BME280;7939;50.814;6.368;2022-11-20T07:50:11;99427.25;;;11.13;59.18
15678;BME280;7939;50.814;6.368;2022-11-20T07:52:38;99428.94;;;11.14;59.18
15678;BME280;7939;50.814;6.368;2022-11-20T07:55:07;99419.56;;;11.14;59.15
15678;BME280;7939;50.814;6.368;2022-11-20T07:57:33;99423.00;;;11.13;59.20
15678;BME280;7939;50.814;6.368;2022-11-20T08:00:00;99422.97;;;11.15;59.51
15678;BME280;7939;50.814;6.368;2022-11-20T08:02:27;99428.94;;;11.14;59.65
15678;BME280;7939;50.814;6.368;2022-11-20T08:04:53;99422.13;;;11.14;59.66
15678;BME280;7939;50.814;6.368;2022-11-20T08:07:21;99422.97;;;11.15;59.61
15678;BME280;7939;50.814;6.368;2022-11-20T08:09:48;99428.94;;;11.15;59.15
15678;BME280;7939;50.814;6.368;2022-11-20T08:12:17;99427.22;;;11.16;60.01
15678;BME280;7939;50.814;6.368;2022-11-20T08:15:03;99428.06;;;11.16;59.32
15678;BME280;7939;50.814;6.368;2022-11-20T08:17:30;99435.72;;;11.16;59.31
15678;BME280;7939;50.814;6.368;2022-11-20T08:19:57;99435.72;;;11.16;59.05
15678;BME280;7939;50.814;6.368;2022-11-20T08:22:25;99432.34;;;11.16;59.26
15678;BME280;7939;50.814;6.368;2022-11-20T08:24:51;99436.59;;;11.17;59.27
15678;BME280;7939;50.814;6.368;2022-11-20T08:27:18;99439.13;;;11.18;59.35
15678;BME280;7939;50.814;6.368;2022-11-20T08:29:44;99434.00;;;11.18;58.80
15678;BME280;7939;50.814;6.368;2022-11-20T08:32:11;99428.03;;;11.18;59.39
15678;BME280;7939;50.814;6.368;2022-11-20T08:34:37;99430.63;;;11.19;59.55
15678;BME280;7939;50.814;6.368;2022-11-20T08:37:04;99424.63;;;11.19;59.64
15678;BME280;7939;50.814;6.368;2022-11-20T08:39:32;99422.94;;;11.18;59.85
15678;BME280;7939;50.814;6.368;2022-11-20T08:41:59;99425.50;;;11.19;59.15
15678;BME280;7939;50.814;6.368;2022-11-20T08:44:26;99433.16;;;11.19;59.73
15678;BME280;7939;50.814;6.368;2022-11-20T08:46:52;99431.44;;;11.21;59.66
15678;BME280;7939;50.814;6.368;2022-11-20T08:49:19;99434.00;;;11.21;59.32
15678;BME280;7939;50.814;6.368;2022-11-20T08:51:46;99422.06;;;11.20;59.69
15678;BME280;7939;50.814;6.368;2022-11-20T08:54:16;99424.63;;;11.20;58.90
15678;BME280;7939;50.814;6.368;2022-11-20T08:56:46;99423.75;;;11.21;59.64
15678;BME280;7939;50.814;6.368;2022-11-20T08:59:12;99423.75;;;11.23;59.81
15678;BME280;7939;50.814;6.368;2022-11-20T09:01:39;99428.88;;;11.21;59.58
15678;BME280;7939;50.814;6.368;2022-11-20T09:04:06;99426.31;;;11.23;59.29
15678;BME280;7939;50.814;6.368;2022-11-20T09:06:32;99431.41;;;11.23;59.37
15678;BME280;7939;50.814;6.368;2022-11-20T09:08:59;99419.44;;;11.25;59.06
15678;BME280;7939;50.814;6.368;2022-11-20T09:11:25;99415.22;;;11.24;59.99
15678;BME280;7939;50.814;6.368;2022-11-20T09:13:53;99422.03;;;11.23;59.50
15678;BME280;7939;50.814;6.368;2022-11-20T09:16:20;99416.91;;;11.23;59.73
15678;BME280;7939;50.814;6.368;2022-11-20T09:18:49;99422.88;;;11.24;59.36
15678;BME280;7939;50.814;6.368;2022-11-20T09:21:15;99415.22;;;11.24;59.47
15678;BME280;7939;50.814;6.368;2022-11-20T09:23:42;99412.66;;;11.24;59.65
15678;BME280;7939;50.814;6.368;2022-11-20T09:26:11;99412.66;;;11.25;59.91
15678;BME280;7939;50.814;6.368;2022-11-20T09:28:38;99413.50;;;11.26;59.30
15678;BME280;7939;50.814;6.368;2022-11-20T09:31:07;99402.41;;;11.27;59.66
15678;BME280;7939;50.814;6.368;2022-11-20T09:33:34;99410.06;;;11.27;59.85
15678;BME280;7939;50.814;6.368;2022-11-20T09:36:01;99409.22;;;11.28;59.93
15678;BME280;7939;50.814;6.368;2022-11-20T09:38:28;99403.25;;;11.27;59.56
15678;BME280;7939;50.814;6.368;2022-11-20T09:40:57;99404.09;;;11.28;59.92
15678;BME280;7939;50.814;6.368;2022-11-20T09:43:31;99398.13;;;11.29;59.86
15678;BME280;7939;50.814;6.368;2022-11-20T09:46:11;99391.28;;;11.29;59.95
15678;BME280;7939;50.814;6.368;2022-11-20T09:48:50;99391.25;;;11.31;59.71
15678;BME280;7939;50.814;6.368;2022-11-20T09:51:31;99393.81;;;11.31;60.14
15678;BME280;7939;50.814;6.368;2022-11-20T09:54:09;99390.41;;;11.30;59.87
15678;BME280;7939;50.814;6.368;2022-11-20T09:56:42;99389.56;;;11.33;59.84
15678;BME280;7939;50.814;6.368;2022-11-20T09:59:19;99390.44;;;11.32;59.89
15678;BME280;7939;50.814;6.368;2022-11-20T10:01:50;99387.84;;;11.33;59.29
15678;BME280;7939;50.814;6.368;2022-11-20T10:04:19;99384.47;;;11.31;59.60
15678;BME280;7939;50.814;6.368;2022-11-20T10:06:50;99377.09;;;11.85;61.57
15678;BME280;7939;50.814;6.368;2022-11-20T10:09:23;99374.72;;;11.66;60.92
15678;BME280;7939;50.814;6.368;2022-11-20T10:12:02;99378.19;;;11.60;60.14
15678;BME280;7939;50.814;6.368;2022-11-20T10:14:37;99377.38;;;11.55;59.97
15678;BME280;7939;50.814;6.368;2022-11-20T10:17:16;99376.56;;;11.53;60.01
15678;BME280;7939;50.814;6.368;2022-11-20T10:20:02;99368.91;;;11.51;60.39
15678;BME280;7939;50.814;6.368;2022-11-20T10:22:48;99363.78;;;11.51;59.48
15678;BME280;7939;50.814;6.368;2022-11-20T10:25:19;99369.78;;;11.50;60.17
15678;BME280;7939;50.814;6.368;2022-11-20T10:27:56;99365.50;;;11.49;60.11
15678;BME280;7939;50.814;6.368;2022-11-20T10:30:27;99363.78;;;11.50;59.45
15678;BME280;7939;50.814;6.368;2022-11-20T10:33:03;99351.03;;;11.48;59.77
15678;BME280;7939;50.814;6.368;2022-11-20T10:35:35;99351.84;;;11.49;59.77
15678;BME280;7939;50.814;6.368;2022-11-20T10:38:07;99356.97;;;11.49;59.75
15678;BME280;7939;50.814;6.368;2022-11-20T10:40:38;99350.16;;;11.49;59.82
15678;BME280;7939;50.814;6.368;2022-11-20T10:43:09;99356.13;;;11.48;60.09
15678;BME280;7939;50.814;6.368;2022-11-20T10:45:46;99342.50;;;11.48;59.56
15678;BME280;7939;50.814;6.368;2022-11-20T10:48:21;99340.78;;;11.48;60.34
15678;BME280;7939;50.814;6.368;2022-11-20T10:50:56;99329.69;;;11.48;59.88
15678;BME280;7939;50.814;6.368;2022-11-20T10:53:39;99330.53;;;11.50;59.77
15678;BME280;7939;50.814;6.368;2022-11-20T10:56:17;99323.72;;;11.49;59.88
15678;BME280;7939;50.814;6.368;2022-11-20T10:58:50;99311.81;;;11.46;59.78
15678;BME280;7939;50.814;6.368;2022-11-20T11:01:20;99310.94;;;11.47;60.05
15678;BME280;7939;50.814;6.368;2022-11-20T11:03:50;99309.22;;;11.49;59.84
15678;BME280;7939;50.814;6.368;2022-11-20T11:06:24;99299.00;;;11.48;59.84
15678;BME280;7939;50.814;6.368;2022-11-20T11:08:57;99299.84;;;11.48;59.66
15678;BME280;7939;50.814;6.368;2022-11-20T11:11:27;99293.00;;;11.49;59.52
15678;BME280;7939;50.814;6.368;2022-11-20T11:14:04;99285.34;;;11.49;59.94
15678;BME280;7939;50.814;6.368;2022-11-20T11:16:31;99281.06;;;11.49;59.57
15678;BME280;7939;50.814;6.368;2022-11-20T11:19:05;99279.38;;;11.48;59.79
15678;BME280;7939;50.814;6.368;2022-11-20T11:21:32;99275.09;;;11.50;59.56
15678;BME280;7939;50.814;6.368;2022-11-20T11:24:00;99264.88;;;11.50;60.28
15678;BME280;7939;50.814;6.368;2022-11-20T11:26:27;99266.56;;;11.50;59.37
15678;BME280;7939;50.814;6.368;2022-11-20T11:28:55;99258.03;;;11.49;59.75
15678;BME280;7939;50.814;6.368;2022-11-20T11:31:24;99251.19;;;11.50;60.11
15678;BME280;7939;50.814;6.368;2022-11-20T11:33:50;99247.81;;;11.49;60.29
15678;BME280;7939;50.814;6.368;2022-11-20T11:36:21;99242.69;;;11.51;60.34
15678;BME280;7939;50.814;6.368;2022-11-20T11:38:52;99235.84;;;11.51;60.00
15678;BME280;7939;50.814;6.368;2022-11-20T11:41:22;99232.38;;;11.57;60.63
15678;BME280;7939;50.814;6.368;2022-11-20T11:43:51;99229.78;;;11.58;60.82
15678;BME280;7939;50.814;6.368;2022-11-20T11:46:36;99226.38;;;11.59;60.79
15678;BME280;7939;50.814;6.368;2022-11-20T11:49:15;99225.53;;;11.56;60.03
15678;BME280;7939;50.814;6.368;2022-11-20T11:51:57;99210.19;;;11.57;60.13
15678;BME280;7939;50.814;6.368;2022-11-20T11:54:29;99206.75;;;11.58;59.99
15678;BME280;7939;50.814;6.368;2022-11-20T11:57:00;99209.31;;;11.58;60.22
15678;BME280;7939;50.814;6.368;2022-11-20T11:59:38;99211.88;;;11.58;59.91
15678;BME280;7939;50.814;6.368;2022-11-20T12:02:15;99201.63;;;11.60;60.66
15678;BME280;7939;50.814;6.368;2022-11-20T12:04:54;99198.22;;;11.59;59.57
15678;BME280;7939;50.814;6.368;2022-11-20T12:07:32;99202.50;;;11.57;60.09
15678;BME280;7939;50.814;6.368;2022-11-20T12:10:03;99200.78;;;11.58;59.80
15678;BME280;7939;50.814;6.368;2022-11-20T12:12:34;99198.25;;;11.58;60.12
15678;BME280;7939;50.814;6.368;2022-11-20T12:15:06;99195.66;;;11.59;60.02
15678;BME280;7939;50.814;6.368;2022-11-20T12:17:36;99192.25;;;11.59;59.54
15678;BME280;7939;50.814;6.368;2022-11-20T12:20:05;99186.28;;;11.58;60.40
15678;BME280;7939;50.814;6.368;2022-11-20T12:22:40;99177.78;;;11.58;59.93
15678;BME280;7939;50.814;6.368;2022-11-20T12:25:14;99184.59;;;11.57;60.38
15678;BME280;7939;50.814;6.368;2022-11-20T12:27:53;99179.44;;;11.60;59.60
15678;BME280;7939;50.814;6.368;2022-11-20T12:30:23;99176.88;;;11.60;60.25
15678;BME280;7939;50.814;6.368;2022-11-20T12:33:24;99175.19;;;11.59;59.69
15678;BME280;7939;50.814;6.368;2022-11-20T12:36:09;99171.75;;;11.60;60.19
15678;BME280;7939;50.814;6.368;2022-11-20T12:38:58;99159.78;;;11.61;60.53
15678;BME280;7939;50.814;6.368;2022-11-20T12:41:43;99164.88;;;11.62;60.51
15678;BME280;7939;50.814;6.368;2022-11-20T12:44:41;99156.38;;;11.64;60.47
15678;BME280;7939;50.814;6.368;2022-11-20T12:47:33;99150.38;;;11.65;60.21
15678;BME280;7939;50.814;6.368;2022-11-20T12:50:12;99146.97;;;11.64;59.91
15678;BME280;7939;50.814;6.368;2022-11-20T12:52:45;99148.66;;;11.65;60.31
15678;BME280;7939;50.814;6.368;2022-11-20T12:55:27;99136.72;;;11.66;59.73
15678;BME280;7939;50.814;6.368;2022-11-20T12:57:58;99126.47;;;11.66;60.53
15678;BME280;7939;50.814;6.368;2022-11-20T13:00:30;99131.56;;;11.67;60.88
15678;BME280;7939;50.814;6.368;2022-11-20T13:03:09;99119.63;;;11.66;60.08
15678;BME280;7939;50.814;6.368;2022-11-20T13:05:52;99124.72;;;11.68;59.84
15678;BME280;7939;50.814;6.368;2022-11-20T13:08:23;99115.31;;;11.70;60.13
15678;BME280;7939;50.814;6.368;2022-11-20T13:10:58;99110.22;;;11.68;60.92
15678;BME280;7939;50.814;6.368;2022-11-20T13:13:35;99104.25;;;11.69;60.47
15678;BME280;7939;50.814;6.368;2022-11-20T13:16:10;99097.41;;;11.70;60.73
15678;BME280;7939;50.814;6.368;2022-11-20T13:18:39;99097.41;;;11.70;59.70
15678;BME280;7939;50.814;6.368;2022-11-20T13:21:16;99091.41;;;11.71;60.14